Time;durP1;ratioP1;P1;durP2;ratioP2;P2;SDS_P1;SDS_P2;PMS_P1;PMS_P2;Temp;Humidity;BMP_temperature;BMP_pressure;BME280_temperature;BME280_humidity;BME280_pressure;Samples;Min_cycle;Max_cycle;Signal;HPM_P1;HPM_P2
2022/09/29 00:00:47;;;;;;;3.40;0.68;;;;;;;;;;5051869;28;20031;-85
2022/09/29 00:03:13;;;;;;;0.45;0.45;;;;;;;;;;5053765;28;20029;-86
2022/09/29 00:05:38;;;;;;;0.60;0.60;;;;;;;;;;5053049;28;20095;-87
2022/09/29 00:08:04;;;;;;;0.40;0.40;;;;;;;;;;5053722;28;21603;-87
2022/09/29 00:10:29;;;;;;;0.35;0.35;;;;;;;;;;5052854;28;20469;-88
2022/09/29 00:12:55;;;;;;;0.77;0.70;;;;;;;;;;5050928;28;20195;-87
2022/09/29 00:15:20;;;;;;;0.52;0.40;;;;;;;;;;5053118;28;20025;-88
2022/09/29 00:17:45;;;;;;;1.10;0.40;;;;;;;;;;5052545;28;20409;-87
2022/09/29 00:20:11;;;;;;;0.45;0.30;;;;;;;;;;5050970;28;20028;-88
2022/09/29 00:22:36;;;;;;;0.25;0.25;;;;;;;;;;5054112;28;20056;-87
2022/09/29 00:25:02;;;;;;;0.10;0.10;;;;;;;;;;5050811;28;20114;-88
2022/09/29 00:27:27;;;;;;;0.77;0.75;;;;;;;;;;5054200;28;20022;-85
2022/09/29 00:29:52;;;;;;;1.75;0.60;;;;;;;;;;5051909;28;20086;-89
2022/09/29 00:32:18;;;;;;;0.50;0.50;;;;;;;;;;5051839;28;20531;-86
2022/09/29 00:34:43;;;;;;;0.28;0.28;;;;;;;;;;5053112;28;20093;-86
2022/09/29 00:37:09;;;;;;;0.35;0.35;;;;;;;;;;5055872;28;20392;-87
2022/09/29 00:39:34;;;;;;;0.73;0.55;;;;;;;;;;5051446;28;20025;-87
2022/09/29 00:42:00;;;;;;;0.40;0.40;;;;;;;;;;5050571;28;20510;-85
2022/09/29 00:44:56;;;;;;;0.47;0.47;;;;;;;;;;5052733;28;20385;-88
2022/09/29 00:47:23;;;;;;;1.17;0.85;;;;;;;;;;5051553;28;20017;-88
2022/09/29 00:50:05;;;;;;;0.52;0.52;;;;;;;;;;5054028;28;20032;-85
2022/09/29 00:52:39;;;;;;;0.43;0.43;;;;;;;;;;5052084;28;20048;-85
2022/09/29 00:55:23;;;;;;;1.80;0.68;;;;;;;;;;5052595;28;20033;-85
2022/09/29 00:57:57;;;;;;;0.35;0.35;;;;;;;;;;5052121;28;20425;-84
2022/09/29 01:00:23;;;;;;;0.40;0.40;;;;;;;;;;5050980;28;20028;-89
2022/09/29 01:03:03;;;;;;;0.45;0.40;;;;;;;;;;5049473;28;20381;-87
2022/09/29 01:05:32;;;;;;;0.85;0.80;;;;;;;;;;5051339;28;20087;-85
2022/09/29 01:08:05;;;;;;;0.30;0.20;;;;;;;;;;5052490;28;20108;-86
2022/09/29 01:10:30;;;;;;;3.75;0.65;;;;;;;;;;5051426;28;20455;-87
2022/09/29 01:12:56;;;;;;;0.20;0.20;;;;;;;;;;5052591;28;20021;-88
2022/09/29 01:15:22;;;;;;;3.50;0.98;;;;;;;;;;5050689;28;20031;-88
2022/09/29 01:17:48;;;;;;;0.38;0.38;;;;;;;;;;5050113;28;20025;-85
2022/09/29 01:20:19;;;;;;;0.80;0.60;;;;;;;;;;5051775;28;20033;-87
2022/09/29 01:22:57;;;;;;;0.77;0.47;;;;;;;;;;5052121;28;20472;-86
2022/09/29 01:25:31;;;;;;;0.40;0.40;;;;;;;;;;5050559;28;20025;-85
2022/09/29 01:28:12;;;;;;;0.55;0.45;;;;;;;;;;5052882;28;20071;-85
2022/09/29 01:31:05;;;;;;;0.93;0.57;;;;;;;;;;5051759;28;20031;-85
2022/09/29 01:34:18;;;;;;;0.63;0.55;;;;;;;;;;5050465;28;20021;-88
2022/09/29 01:37:03;;;;;;;0.73;0.63;;;;;;;;;;5044147;28;20060;-88
2022/09/29 01:39:37;;;;;;;1.00;0.90;;;;;;;;;;5049293;28;20021;-87
2022/09/29 01:42:08;;;;;;;0.52;0.52;;;;;;;;;;5052093;28;20178;-89
2022/09/29 01:44:52;;;;;;;0.35;0.35;;;;;;;;;;5051334;28;20021;-86
2022/09/29 01:47:29;;;;;;;0.17;0.17;;;;;;;;;;5051640;28;20025;-86
2022/09/29 01:49:59;;;;;;;0.75;0.50;;;;;;;;;;5052406;28;20042;-88
2022/09/29 01:52:31;;;;;;;0.90;0.40;;;;;;;;;;5052503;28;20106;-85
2022/09/29 01:55:04;;;;;;;0.88;0.82;;;;;;;;;;5054116;28;20021;-87
2022/09/29 01:57:56;;;;;;;1.13;0.68;;;;;;;;;;5054532;28;20032;-86
2022/09/29 02:00:22;;;;;;;0.90;0.70;;;;;;;;;;5047035;28;20053;-87
2022/09/29 02:03:13;;;;;;;0.52;0.52;;;;;;;;;;5054718;28;20392;-87
2022/09/29 02:05:41;;;;;;;1.42;1.00;;;;;;;;;;5054395;28;20041;-86
2022/09/29 02:08:17;;;;;;;0.82;0.65;;;;;;;;;;5055302;28;20028;-87
2022/09/29 02:11:00;;;;;;;2.05;0.90;;;;;;;;;;5055887;28;20504;-87
2022/09/29 02:13:30;;;;;;;0.45;0.45;;;;;;;;;;5055561;28;20029;-88
2022/09/29 02:15:57;;;;;;;0.88;0.73;;;;;;;;;;5054089;28;20036;-87
2022/09/29 02:18:29;;;;;;;0.22;0.22;;;;;;;;;;5055091;28;20029;-86
2022/09/29 02:20:55;;;;;;;0.22;0.22;;;;;;;;;;5053602;28;20040;-85
2022/09/29 02:23:20;;;;;;;0.57;0.57;;;;;;;;;;5055996;28;20029;-88
2022/09/29 02:25:48;;;;;;;2.90;0.70;;;;;;;;;;5055564;28;20094;-86
2022/09/29 02:28:15;;;;;;;0.80;0.60;;;;;;;;;;5050803;28;20049;-84
2022/09/29 02:30:40;;;;;;;0.63;0.52;;;;;;;;;;5055074;28;20518;-87
2022/09/29 02:33:17;;;;;;;0.60;0.52;;;;;;;;;;5055022;28;20116;-85
2022/09/29 02:35:56;;;;;;;0.32;0.32;;;;;;;;;;5055071;28;20469;-86
2022/09/29 02:38:50;;;;;;;2.97;1.38;;;;;;;;;;5053939;28;20070;-87
2022/09/29 02:41:31;;;;;;;0.85;0.40;;;;;;;;;;5053929;28;20051;-88
2022/09/29 02:44:03;;;;;;;0.90;0.70;;;;;;;;;;5052225;28;20481;-85
2022/09/29 02:46:40;;;;;;;0.60;0.45;;;;;;;;;;5054401;28;20365;-83
2022/09/29 02:49:18;;;;;;;0.82;0.80;;;;;;;;;;5054172;28;20021;-87
2022/09/29 02:51:49;;;;;;;1.88;1.00;;;;;;;;;;5052517;28;20119;-85
2022/09/29 02:54:38;;;;;;;0.63;0.40;;;;;;;;;;5053495;28;20048;-85
2022/09/29 02:57:30;;;;;;;0.80;0.77;;;;;;;;;;5054491;28;20162;-86
2022/09/29 03:00:11;;;;;;;0.95;0.73;;;;;;;;;;5053843;28;20049;-85
2022/09/29 03:02:38;;;;;;;0.70;0.68;;;;;;;;;;5052011;28;20538;-85
2022/09/29 03:05:12;;;;;;;1.23;0.80;;;;;;;;;;5052882;28;20068;-86
2022/09/29 03:07:38;;;;;;;9.23;1.30;;;;;;;;;;5054095;28;20029;-87
2022/09/29 03:10:05;;;;;;;0.88;0.50;;;;;;;;;;5052872;28;20024;-89
2022/09/29 03:12:30;;;;;;;0.40;0.40;;;;;;;;;;5052390;28;20051;-86
2022/09/29 03:14:56;;;;;;;0.52;0.50;;;;;;;;;;5054999;28;20052;-89
2022/09/29 03:17:21;;;;;;;0.75;0.75;;;;;;;;;;5053653;28;20100;-87
2022/09/29 03:19:47;;;;;;;1.10;0.63;;;;;;;;;;5054788;28;20521;-86
2022/09/29 03:22:13;;;;;;;0.35;0.30;;;;;;;;;;5051843;28;20039;-85
2022/09/29 03:24:38;;;;;;;1.13;0.70;;;;;;;;;;5052033;28;20104;-84
2022/09/29 03:27:04;;;;;;;0.60;0.60;;;;;;;;;;5051838;28;20025;-84
2022/09/29 03:29:30;;;;;;;1.85;0.85;;;;;;;;;;5049415;28;20092;-88
2022/09/29 03:31:58;;;;;;;0.68;0.68;;;;;;;;;;5052410;28;20092;-83
2022/09/29 03:34:23;;;;;;;1.38;0.95;;;;;;;;;;5054013;28;20021;-88
2022/09/29 03:36:49;;;;;;;1.98;1.33;;;;;;;;;;5052799;28;20511;-83
2022/09/29 03:39:14;;;;;;;0.68;0.68;;;;;;;;;;5052206;28;20104;-85
2022/09/29 03:41:40;;;;;;;0.57;0.57;;;;;;;;;;5051867;28;20025;-84
2022/09/29 03:44:05;;;;;;;1.65;0.88;;;;;;;;;;5053255;28;20025;-85
2022/09/29 03:46:31;;;;;;;2.28;0.70;;;;;;;;;;5056069;28;20395;-85
2022/09/29 03:48:56;;;;;;;3.83;0.85;;;;;;;;;;5051642;28;20028;-86
2022/09/29 03:51:22;;;;;;;0.70;0.50;;;;;;;;;;5052797;28;20044;-85
2022/09/29 03:53:47;;;;;;;0.40;0.40;;;;;;;;;;5053670;28;20032;-86
2022/09/29 03:56:14;;;;;;;1.98;1.05;;;;;;;;;;5052412;28;20052;-85
2022/09/29 03:58:39;;;;;;;1.02;0.82;;;;;;;;;;5051686;28;20407;-85
2022/09/29 04:01:05;;;;;;;0.38;0.32;;;;;;;;;;5053533;28;20150;-83
2022/09/29 04:03:31;;;;;;;0.82;0.82;;;;;;;;;;5053706;28;20484;-84
2022/09/29 04:05:56;;;;;;;1.05;0.82;;;;;;;;;;5050481;28;20059;-84
2022/09/29 04:08:21;;;;;;;0.75;0.73;;;;;;;;;;5052939;28;20028;-86
2022/09/29 04:10:47;;;;;;;2.30;0.63;;;;;;;;;;5053229;28;20473;-85
2022/09/29 04:13:13;;;;;;;0.68;0.60;;;;;;;;;;5052380;28;20029;-85
2022/09/29 04:15:39;;;;;;;0.43;0.43;;;;;;;;;;5052464;28;20032;-87
2022/09/29 04:18:05;;;;;;;1.55;1.30;;;;;;;;;;5051671;28;20171;-84
2022/09/29 04:20:31;;;;;;;1.13;0.75;;;;;;;;;;5050341;28;20513;-86
2022/09/29 04:22:57;;;;;;;2.88;1.02;;;;;;;;;;5053265;28;20035;-86
2022/09/29 04:25:22;;;;;;;0.35;0.35;;;;;;;;;;5053787;28;20108;-87
2022/09/29 04:27:47;;;;;;;1.13;0.93;;;;;;;;;;5055708;28;20025;-86
2022/09/29 04:30:13;;;;;;;0.70;0.70;;;;;;;;;;5054786;28;20032;-86
2022/09/29 04:32:38;;;;;;;1.23;1.00;;;;;;;;;;5052729;28;20037;-86
2022/09/29 04:35:04;;;;;;;5.88;1.38;;;;;;;;;;5051968;28;21370;-86
2022/09/29 04:37:30;;;;;;;1.98;1.15;;;;;;;;;;5052139;28;20477;-86
2022/09/29 04:39:56;;;;;;;3.15;0.80;;;;;;;;;;5052635;28;20603;-86
2022/09/29 04:42:22;;;;;;;0.60;0.60;;;;;;;;;;5052898;28;20032;-85
2022/09/29 04:44:47;;;;;;;0.93;0.85;;;;;;;;;;5055230;28;20031;-82
2022/09/29 04:47:13;;;;;;;6.18;1.02;;;;;;;;;;5053744;28;20455;-85
2022/09/29 04:49:38;;;;;;;0.65;0.43;;;;;;;;;;5053320;28;20025;-85
2022/09/29 04:52:04;;;;;;;0.60;0.60;;;;;;;;;;5052078;28;20428;-83
2022/09/29 04:54:31;;;;;;;1.23;0.93;;;;;;;;;;5049205;28;20436;-84
2022/09/29 04:56:57;;;;;;;0.55;0.55;;;;;;;;;;5053056;28;20082;-84
2022/09/29 04:59:22;;;;;;;1.13;1.02;;;;;;;;;;5050444;28;20554;-82
2022/09/29 05:01:48;;;;;;;2.08;1.42;;;;;;;;;;5054678;28;20071;-83
2022/09/29 05:04:13;;;;;;;1.10;0.98;;;;;;;;;;5052261;28;20075;-83
2022/09/29 05:06:39;;;;;;;1.40;0.60;;;;;;;;;;5051114;28;20492;-83
2022/09/29 05:09:05;;;;;;;1.08;0.90;;;;;;;;;;5052288;28;20024;-84
2022/09/29 05:11:30;;;;;;;2.70;1.45;;;;;;;;;;5053053;28;20049;-80
2022/09/29 05:13:56;;;;;;;0.93;0.65;;;;;;;;;;5063361;28;20067;-81
2022/09/29 05:16:22;;;;;;;1.15;0.60;;;;;;;;;;5050237;28;20025;-82
2022/09/29 05:18:47;;;;;;;0.95;0.93;;;;;;;;;;5050208;28;20474;-84
2022/09/29 05:21:12;;;;;;;2.38;1.20;;;;;;;;;;5049815;28;20219;-82
2022/09/29 05:23:38;;;;;;;1.35;0.95;;;;;;;;;;5051383;28;20096;-81
2022/09/29 05:26:08;;;;;;;1.45;0.88;;;;;;;;;;5047275;28;20082;-84
2022/09/29 05:28:34;;;;;;;;;;;;;;;;;;5049177;28;20068;-87
2022/09/29 05:31:03;;;;;;;1.33;0.80;;;;;;;;;;5053399;28;19947;-84
2022/09/29 05:33:29;;;;;;;1.08;0.63;;;;;;;;;;5054511;28;20027;-89
2022/09/29 05:35:55;;;;;;;1.65;0.80;;;;;;;;;;5055022;28;20037;-85
2022/09/29 05:38:22;;;;;;;3.03;0.90;;;;;;;;;;5054505;28;20028;-85
2022/09/29 05:40:47;;;;;;;0.60;0.50;;;;;;;;;;5056261;28;20040;-86
2022/09/29 05:43:13;;;;;;;0.70;0.60;;;;;;;;;;5053798;28;20029;-84
2022/09/29 05:45:38;;;;;;;1.83;0.80;;;;;;;;;;5056251;28;20036;-86
2022/09/29 05:48:04;;;;;;;1.58;1.10;;;;;;;;;;5055518;28;20350;-87
2022/09/29 05:50:30;;;;;;;3.42;1.50;;;;;;;;;;5053850;28;20120;-86
2022/09/29 05:53:01;;;;;;;1.30;1.08;;;;;;;;;;5051821;28;20052;-85
2022/09/29 05:55:26;;;;;;;1.25;0.98;;;;;;;;;;5054459;28;20407;-87
2022/09/29 05:57:52;;;;;;;1.05;0.85;;;;;;;;;;5057689;28;20025;-83
2022/09/29 06:00:17;;;;;;;0.95;0.73;;;;;;;;;;5053127;28;20036;-87
2022/09/29 06:02:43;;;;;;;0.52;0.52;;;;;;;;;;5056056;28;20480;-83
2022/09/29 06:05:08;;;;;;;0.90;0.80;;;;;;;;;;5055458;28;20568;-86
2022/09/29 06:07:33;;;;;;;0.82;0.47;;;;;;;;;;5053680;28;20021;-85
2022/09/29 06:09:59;;;;;;;1.88;1.05;;;;;;;;;;5054628;28;20045;-81
2022/09/29 06:12:24;;;;;;;2.10;1.13;;;;;;;;;;5052860;28;20078;-83
2022/09/29 06:14:50;;;;;;;0.85;0.85;;;;;;;;;;5054170;28;20031;-84
2022/09/29 06:17:15;;;;;;;1.27;0.75;;;;;;;;;;5054737;28;20020;-83
2022/09/29 06:19:40;;;;;;;0.82;0.80;;;;;;;;;;5051291;28;20044;-84
2022/09/29 06:22:06;;;;;;;1.52;0.80;;;;;;;;;;5053051;28;20044;-83
2022/09/29 06:24:31;;;;;;;1.05;0.73;;;;;;;;;;5054688;28;20028;-83
2022/09/29 06:26:57;;;;;;;1.00;0.93;;;;;;;;;;5055695;28;20024;-83
2022/09/29 06:29:22;;;;;;;1.75;1.05;;;;;;;;;;5054282;28;20029;-85
2022/09/29 06:31:48;;;;;;;0.22;0.22;;;;;;;;;;5053751;28;20027;-85
2022/09/29 06:34:13;;;;;;;0.68;0.68;;;;;;;;;;5054735;28;20111;-84
2022/09/29 06:39:28;;;;;;;0.57;0.57;;;;;;;;;;5053583;28;20517;-87
2022/09/29 06:41:55;;;;;;;1.42;0.98;;;;;;;;;;5058178;28;20687;-86
2022/09/29 06:44:26;;;;;;;1.13;0.82;;;;;;;;;;5054334;28;20036;-86
2022/09/29 06:46:53;;;;;;;1.70;1.42;;;;;;;;;;5054712;28;20025;-87
2022/09/29 06:49:19;;;;;;;0.40;0.30;;;;;;;;;;5054397;28;20119;-85
2022/09/29 06:51:45;;;;;;;0.40;0.35;;;;;;;;;;5055340;28;20047;-88
2022/09/29 06:54:15;;;;;;;4.57;2.10;;;;;;;;;;5057771;28;20104;-85
2022/09/29 06:56:41;;;;;;;0.98;0.77;;;;;;;;;;5053530;28;20493;-86
2022/09/29 06:59:07;;;;;;;0.50;0.50;;;;;;;;;;5055300;28;20025;-87
2022/09/29 07:01:33;;;;;;;0.40;0.40;;;;;;;;;;5052666;28;20032;-86
2022/09/29 07:03:59;;;;;;;0.70;0.50;;;;;;;;;;5054941;28;20049;-89
2022/09/29 07:06:25;;;;;;;1.00;0.90;;;;;;;;;;5055192;28;20016;-88
2022/09/29 07:08:55;;;;;;;2.25;1.10;;;;;;;;;;5053368;28;20021;-88
2022/09/29 07:11:20;;;;;;;;;;;;;;;;;;5055929;28;20025;-87
2022/09/29 07:13:48;;;;;;;0.45;0.45;;;;;;;;;;5053420;28;20280;-89
2022/09/29 07:16:14;;;;;;;0.50;0.50;;;;;;;;;;5054719;28;20029;-92
2022/09/29 07:18:41;;;;;;;1.48;1.08;;;;;;;;;;5055722;28;20025;-84
2022/09/29 07:21:10;;;;;;;1.73;1.63;;;;;;;;;;5052793;28;20485;-85
2022/09/29 07:23:36;;;;;;;0.30;0.30;;;;;;;;;;5059811;28;20028;-86
2022/09/29 07:26:03;;;;;;;0.93;0.85;;;;;;;;;;5056364;28;20021;-84
2022/09/29 07:28:29;;;;;;;2.50;0.60;;;;;;;;;;5061251;28;20032;-88
2022/09/29 07:31:02;;;;;;;1.70;0.80;;;;;;;;;;5063679;28;20416;-83
2022/09/29 07:33:29;;;;;;;0.45;0.45;;;;;;;;;;5059399;28;20258;-86
2022/09/29 07:35:54;;;;;;;1.20;1.00;;;;;;;;;;5054213;28;20021;-86
2022/09/29 07:38:20;;;;;;;2.53;1.00;;;;;;;;;;5058777;28;20503;-86
2022/09/29 07:40:45;;;;;;;0.65;0.60;;;;;;;;;;5059123;28;20029;-84
2022/09/29 07:43:11;;;;;;;1.55;1.08;;;;;;;;;;5056193;28;20028;-84
2022/09/29 07:45:37;;;;;;;1.40;1.20;;;;;;;;;;5056178;28;20037;-87
2022/09/29 07:48:02;;;;;;;1.52;0.90;;;;;;;;;;5054882;28;20024;-85
2022/09/29 07:50:28;;;;;;;0.52;0.52;;;;;;;;;;5055903;28;20016;-84
2022/09/29 07:52:53;;;;;;;1.38;1.00;;;;;;;;;;5054854;28;20071;-88
2022/09/29 07:55:20;;;;;;;5.43;1.00;;;;;;;;;;5053609;28;20074;-86
2022/09/29 07:58:01;;;;;;;0.85;0.70;;;;;;;;;;5054717;28;20030;-85
2022/09/29 08:00:29;;;;;;;1.05;0.50;;;;;;;;;;5056592;28;20020;-85
2022/09/29 08:02:58;;;;;;;0.80;0.80;;;;;;;;;;5052665;28;20024;-85
2022/09/29 08:05:26;;;;;;;1.98;1.08;;;;;;;;;;5053681;28;20630;-86
2022/09/29 08:07:52;;;;;;;1.38;1.08;;;;;;;;;;5052679;28;20087;-84
2022/09/29 08:10:18;;;;;;;0.52;0.52;;;;;;;;;;5057312;28;20108;-86
2022/09/29 08:12:44;;;;;;;6.47;1.10;;;;;;;;;;5058622;28;20048;-85
2022/09/29 08:15:09;;;;;;;0.80;0.55;;;;;;;;;;5054303;28;20029;-85
2022/09/29 08:17:35;;;;;;;2.95;0.93;;;;;;;;;;5055777;28;20121;-83
2022/09/29 08:20:00;;;;;;;1.17;0.65;;;;;;;;;;5052821;28;20037;-82
2022/09/29 08:22:25;;;;;;;13.98;1.20;;;;;;;;;;5053721;28;20071;-79
2022/09/29 08:24:51;;;;;;;0.65;0.65;;;;;;;;;;5055858;28;20028;-85
2022/09/29 08:27:17;;;;;;;1.70;1.25;;;;;;;;;;5053129;28;20048;-86
2022/09/29 08:29:42;;;;;;;2.60;1.20;;;;;;;;;;5054949;28;20481;-82
2022/09/29 08:32:08;;;;;;;1.00;0.80;;;;;;;;;;5052924;28;20052;-82
2022/09/29 08:34:33;;;;;;;0.60;0.50;;;;;;;;;;5054915;28;20103;-81
2022/09/29 08:36:59;;;;;;;0.93;0.77;;;;;;;;;;5054601;28;20037;-83
2022/09/29 08:39:24;;;;;;;1.13;0.80;;;;;;;;;;5053358;28;20029;-82
2022/09/29 08:42:01;;;;;;;1.00;0.82;;;;;;;;;;5057010;28;20155;-85
2022/09/29 08:44:36;;;;;;;1.55;0.85;;;;;;;;;;5053445;28;20123;-83
2022/09/29 08:47:28;;;;;;;0.50;0.50;;;;;;;;;;5052205;28;21600;-83
2022/09/29 08:49:58;;;;;;;0.80;0.80;;;;;;;;;;5052242;28;20032;-82
2022/09/29 08:52:27;;;;;;;1.85;1.17;;;;;;;;;;5054440;28;20436;-82
2022/09/29 08:55:17;;;;;;;1.58;0.68;;;;;;;;;;5053183;28;20056;-84
2022/09/29 08:57:45;;;;;;;1.00;0.90;;;;;;;;;;5051807;28;20031;-79
2022/09/29 09:00:17;;;;;;;2.92;0.63;;;;;;;;;;5056849;28;20032;-81
2022/09/29 09:02:51;;;;;;;1.00;0.85;;;;;;;;;;5051522;28;20061;-84
2022/09/29 09:05:55;;;;;;;1.13;0.80;;;;;;;;;;5059142;28;20045;-84
2022/09/29 09:08:57;;;;;;;0.57;0.55;;;;;;;;;;5038272;28;20044;-84
2022/09/29 09:11:28;;;;;;;0.60;0.60;;;;;;;;;;5057672;28;20500;-86
2022/09/29 09:14:09;;;;;;;1.77;0.88;;;;;;;;;;5055532;28;20481;-83
2022/09/29 09:16:59;;;;;;;2.95;1.40;;;;;;;;;;5055352;28;20044;-85
2022/09/29 09:19:37;;;;;;;1.10;0.88;;;;;;;;;;5057600;28;20029;-83
2022/09/29 09:22:09;;;;;;;0.98;0.77;;;;;;;;;;5057578;28;20089;-86
2022/09/29 09:24:58;;;;;;;0.52;0.38;;;;;;;;;;5059273;28;20043;-86
2022/09/29 09:27:33;;;;;;;0.60;0.60;;;;;;;;;;5057740;28;20082;-87
2022/09/29 09:30:06;;;;;;;0.77;0.63;;;;;;;;;;5057224;28;20060;-83
2022/09/29 09:32:43;;;;;;;0.95;0.85;;;;;;;;;;5056520;28;20024;-86
2022/09/29 09:35:33;;;;;;;1.27;0.70;;;;;;;;;;5056446;28;20044;-82
2022/09/29 09:38:09;;;;;;;2.90;0.80;;;;;;;;;;5055576;28;20029;-87
2022/09/29 09:40:43;;;;;;;0.52;0.50;;;;;;;;;;5057654;28;20070;-81
2022/09/29 09:43:13;;;;;;;1.05;0.80;;;;;;;;;;5056326;28;20066;-84
2022/09/29 09:45:47;;;;;;;0.73;0.63;;;;;;;;;;5056882;28;20420;-84
2022/09/29 09:48:16;;;;;;;0.50;0.50;;;;;;;;;;5057691;28;20110;-84
2022/09/29 09:50:42;;;;;;;0.47;0.37;;;;;;;;;;5054751;28;20485;-81
2022/09/29 09:53:32;;;;;;;0.30;0.30;;;;;;;;;;5056277;28;20036;-82
2022/09/29 09:56:43;;;;;;;0.50;0.50;;;;;;;;;;5058513;28;20489;-79
2022/09/29 09:59:40;;;;;;;0.45;0.45;;;;;;;;;;5012663;28;20066;-83
2022/09/29 10:02:16;;;;;;;0.50;0.45;;;;;;;;;;5055208;28;20453;-80
2022/09/29 10:04:42;;;;;;;1.20;0.93;;;;;;;;;;5055485;28;20053;-85
2022/09/29 10:07:26;;;;;;;5.88;0.80;;;;;;;;;;5056356;28;20029;-85
2022/09/29 10:09:52;;;;;;;3.22;2.15;;;;;;;;;;5055932;28;20024;-86
2022/09/29 10:12:20;;;;;;;11.98;5.72;;;;;;;;;;5055296;28;20568;-87
2022/09/29 10:14:58;;;;;;;4.47;3.13;;;;;;;;;;5054702;28;20465;-85
2022/09/29 10:17:29;;;;;;;1.42;1.15;;;;;;;;;;5051828;28;20033;-82
2022/09/29 10:20:00;;;;;;;2.38;0.60;;;;;;;;;;5054700;28;20033;-85
2022/09/29 10:22:28;;;;;;;3.65;1.15;;;;;;;;;;5053234;28;20017;-86
2022/09/29 10:25:11;;;;;;;0.60;0.60;;;;;;;;;;5056569;28;20032;-85
2022/09/29 10:27:42;;;;;;;0.52;0.45;;;;;;;;;;5053648;28;20611;-84
2022/09/29 10:30:23;;;;;;;0.63;0.50;;;;;;;;;;5053999;28;20025;-84
2022/09/29 10:32:59;;;;;;;1.75;1.13;;;;;;;;;;5053869;28;20378;-84
2022/09/29 10:35:42;;;;;;;3.38;1.73;;;;;;;;;;5054187;28;20167;-83
2022/09/29 10:38:16;;;;;;;6.88;4.65;;;;;;;;;;5053721;28;20033;-84
2022/09/29 10:41:00;;;;;;;3.38;0.85;;;;;;;;;;5052498;28;20477;-83
2022/09/29 10:43:34;;;;;;;0.60;0.60;;;;;;;;;;5051411;28;20025;-83
2022/09/29 10:46:00;;;;;;;0.80;0.70;;;;;;;;;;5053327;28;20478;-86
2022/09/29 10:48:26;;;;;;;0.50;0.50;;;;;;;;;;5054121;28;20021;-85
2022/09/29 10:51:01;;;;;;;0.47;0.47;;;;;;;;;;5053731;28;20053;-84
2022/09/29 10:53:38;;;;;;;8.80;5.80;;;;;;;;;;5055006;28;20029;-85
2022/09/29 10:56:30;;;;;;;0.80;0.75;;;;;;;;;;5054996;28;20040;-86
2022/09/29 10:58:58;;;;;;;0.90;0.80;;;;;;;;;;5048171;28;20500;-85
2022/09/29 11:01:25;;;;;;;4.68;1.20;;;;;;;;;;5055211;28;20032;-88
2022/09/29 11:04:02;;;;;;;0.75;0.75;;;;;;;;;;5052148;28;20032;-85
2022/09/29 11:06:31;;;;;;;0.43;0.40;;;;;;;;;;5053414;28;20036;-82
2022/09/29 11:09:05;;;;;;;1.02;0.63;;;;;;;;;;5051686;28;20067;-85
2022/09/29 11:11:38;;;;;;;0.50;0.50;;;;;;;;;;5054228;28;20029;-83
2022/09/29 11:14:04;;;;;;;5.50;3.40;;;;;;;;;;5053284;28;20033;-86
2022/09/29 11:16:32;;;;;;;4.75;2.63;;;;;;;;;;5052629;28;20029;-84
2022/09/29 11:19:01;;;;;;;0.70;0.65;;;;;;;;;;5052019;28;20029;-84
2022/09/29 11:21:52;;;;;;;1.95;0.60;;;;;;;;;;5052035;28;20032;-82
2022/09/29 11:24:24;;;;;;;1.40;0.90;;;;;;;;;;5052356;28;20203;-84
2022/09/29 11:26:58;;;;;;;0.68;0.52;;;;;;;;;;5051577;28;20025;-84
2022/09/29 11:30:21;;;;;;;0.50;0.50;;;;;;;;;;5050979;28;20036;-86
2022/09/29 11:33:04;;;;;;;1.63;1.52;;;;;;;;;;4972682;28;20077;-83
2022/09/29 11:35:54;;;;;;;2.25;1.13;;;;;;;;;;4983387;28;20537;-85
2022/09/29 11:38:34;;;;;;;0.43;0.43;;;;;;;;;;5041981;28;20041;-87
2022/09/29 11:41:52;;;;;;;0.77;0.57;;;;;;;;;;5051083;28;20040;-87
2022/09/29 11:45:07;;;;;;;1.38;1.02;;;;;;;;;;5007714;28;20497;-85
2022/09/29 11:47:50;;;;;;;0.40;0.40;;;;;;;;;;5007054;28;20471;-84
2022/09/29 11:50:48;;;;;;;0.88;0.60;;;;;;;;;;5010359;28;20036;-83
2022/09/29 11:53:28;;;;;;;0.63;0.57;;;;;;;;;;5039996;28;20131;-87
2022/09/29 11:55:54;;;;;;;0.40;0.40;;;;;;;;;;5051727;28;20499;-82
2022/09/29 11:58:19;;;;;;;0.40;0.40;;;;;;;;;;5051391;28;20116;-83
2022/09/29 12:01:03;;;;;;;0.60;0.52;;;;;;;;;;5049921;28;20423;-83
2022/09/29 12:04:03;;;;;;;0.30;0.30;;;;;;;;;;5059008;28;20365;-88
2022/09/29 12:06:30;;;;;;;0.70;0.40;;;;;;;;;;5051646;28;20086;-85
2022/09/29 12:09:20;;;;;;;0.75;0.50;;;;;;;;;;5052619;28;20021;-84
2022/09/29 12:11:45;;;;;;;;;;;;;;;;;;5054064;28;20516;-84
2022/09/29 12:14:26;;;;;;;4.30;2.47;;;;;;;;;;5052505;28;20000;-81
2022/09/29 12:17:03;;;;;;;3.05;1.33;;;;;;;;;;5052203;28;20546;-84
2022/09/29 12:19:32;;;;;;;0.90;0.60;;;;;;;;;;5052687;28;20095;-82
2022/09/29 12:22:01;;;;;;;0.75;0.55;;;;;;;;;;5053215;28;20383;-84
2022/09/29 12:24:30;;;;;;;0.80;0.47;;;;;;;;;;5054481;28;20457;-86
2022/09/29 12:26:57;;;;;;;0.30;0.30;;;;;;;;;;5055529;28;20063;-83
2022/09/29 12:29:45;;;;;;;0.45;0.43;;;;;;;;;;5052611;28;20016;-86
2022/09/29 12:32:18;;;;;;;23.67;13.32;;;;;;;;;;5050112;28;20040;-84
2022/09/29 12:34:58;;;;;;;6.28;3.88;;;;;;;;;;5049901;28;20423;-82
2022/09/29 12:37:33;;;;;;;0.50;0.50;;;;;;;;;;5056657;28;20033;-85
2022/09/29 12:40:11;;;;;;;0.40;0.40;;;;;;;;;;5051487;28;20362;-85
2022/09/29 12:42:55;;;;;;;0.80;0.57;;;;;;;;;;5055118;28;20094;-82
2022/09/29 12:45:35;;;;;;;0.30;0.30;;;;;;;;;;5052047;28;20424;-82
2022/09/29 12:48:00;;;;;;;0.98;0.82;;;;;;;;;;5049340;28;20063;-84
2022/09/29 12:50:37;;;;;;;0.45;0.40;;;;;;;;;;5052456;28;20048;-83
2022/09/29 12:53:16;;;;;;;0.40;0.40;;;;;;;;;;5051153;28;20436;-85
2022/09/29 12:55:52;;;;;;;1.55;0.77;;;;;;;;;;5053258;28;20035;-83
2022/09/29 12:58:27;;;;;;;2.90;1.73;;;;;;;;;;5049012;28;20485;-86
2022/09/29 13:01:00;;;;;;;0.50;0.50;;;;;;;;;;5050426;28;20025;-86
2022/09/29 13:03:42;;;;;;;0.35;0.35;;;;;;;;;;5053404;28;20037;-83
2022/09/29 13:06:26;;;;;;;0.40;0.40;;;;;;;;;;5051508;28;20045;-83
2022/09/29 13:09:35;;;;;;;0.68;0.63;;;;;;;;;;5053576;28;20798;-86
2022/09/29 13:12:22;;;;;;;2.97;2.00;;;;;;;;;;5045794;28;20380;-85
2022/09/29 15:15:34;;;;;;;1.60;0.63;;;;;;;;;;5117797;27;20390;-88
2022/09/29 15:18:23;;;;;;;0.98;0.73;;;;;;;;;;5103688;28;20036;-87
2022/09/29 15:21:09;;;;;;;0.90;0.70;;;;;;;;;;5103261;28;20028;-86
2022/09/29 15:23:52;;;;;;;0.63;0.50;;;;;;;;;;5102836;28;20024;-85
2022/09/29 15:45:31;;;;;;;0.85;0.60;;;;;;;;;;5108017;27;20432;-86
2022/09/29 15:48:00;;;;;;;1.17;0.73;;;;;;;;;;5105006;28;20482;-88
2022/09/29 15:50:30;;;;;;;2.45;1.02;;;;;;;;;;5104621;28;20027;-86
2022/09/29 15:52:59;;;;;;;0.55;0.45;;;;;;;;;;5107741;28;20425;-85
2022/09/29 15:55:26;;;;;;;0.30;0.30;;;;;;;;;;5100186;28;20052;-84
2022/09/29 15:57:52;;;;;;;1.17;0.68;;;;;;;;;;5104426;28;20421;-85
2022/09/29 16:00:20;;;;;;;1.23;0.73;;;;;;;;;;5106432;28;20383;-85
2022/09/29 16:03:11;;;;;;;1.63;0.80;;;;;;;;;;5105735;28;20370;-85
2022/09/29 16:05:40;;;;;;;0.40;0.40;;;;;;;;;;5099833;28;20372;-85
2022/09/29 16:08:14;;;;;;;1.00;0.60;;;;;;;;;;5099832;28;21886;-86
2022/09/29 16:10:54;;;;;;;3.65;1.20;;;;;;;;;;5106566;28;20054;-88
2022/09/29 16:13:40;;;;;;;0.40;0.40;;;;;;;;;;5105787;28;20034;-85
2022/09/29 16:16:08;;;;;;;0.90;0.50;;;;;;;;;;5104109;28;20035;-85
2022/09/29 16:18:39;;;;;;;0.35;0.35;;;;;;;;;;5106095;28;20024;-86
2022/09/29 16:21:09;;;;;;;4.13;3.22;;;;;;;;;;5102063;28;20483;-86
2022/09/29 16:23:40;;;;;;;3.80;2.97;;;;;;;;;;5107808;28;20022;-86
2022/09/29 16:26:06;;;;;;;0.90;0.85;;;;;;;;;;5105106;28;20479;-84
2022/09/29 16:28:36;;;;;;;1.35;1.13;;;;;;;;;;5107430;28;20023;-84
2022/09/29 16:31:06;;;;;;;5.43;1.05;;;;;;;;;;5106466;28;20032;-84
2022/09/29 16:33:32;;;;;;;;;;;;;;;;;;5105641;28;20462;-83
2022/09/29 16:36:11;;;;;;;2.58;1.25;;;;;;;;;;5104018;28;19916;-83
2022/09/29 16:38:43;;;;;;;0.68;0.63;;;;;;;;;;5105085;28;20107;-84
2022/09/29 16:41:35;;;;;;;0.77;0.70;;;;;;;;;;5102917;28;20376;-85
2022/09/29 16:44:05;;;;;;;1.13;0.88;;;;;;;;;;5104167;28;20353;-85
2022/09/29 16:46:33;;;;;;;2.20;0.95;;;;;;;;;;5090904;28;20065;-83
2022/09/29 16:48:58;;;;;;;1.05;0.65;;;;;;;;;;5093195;28;20032;-83
2022/09/29 16:51:24;;;;;;;1.92;1.00;;;;;;;;;;5092161;28;20159;-85
2022/09/29 16:53:50;;;;;;;2.20;0.98;;;;;;;;;;5093077;28;20059;-84
2022/09/29 16:56:24;;;;;;;0.90;0.70;;;;;;;;;;5091150;28;20027;-83
2022/09/29 16:59:15;;;;;;;1.05;0.60;;;;;;;;;;5091325;28;20077;-84
2022/09/29 17:01:42;;;;;;;1.33;0.80;;;;;;;;;;5078796;28;20043;-85
2022/09/29 17:04:08;;;;;;;1.63;1.17;;;;;;;;;;5087534;28;20035;-85
2022/09/29 17:06:33;;;;;;;2.10;0.98;;;;;;;;;;5087917;28;20044;-84
2022/09/29 17:08:59;;;;;;;1.45;0.63;;;;;;;;;;5092413;28;20032;-84
2022/09/29 17:11:26;;;;;;;0.50;0.50;;;;;;;;;;5093872;28;20028;-85
2022/09/29 17:13:52;;;;;;;1.45;1.08;;;;;;;;;;5089575;28;20467;-83
2022/09/29 17:16:20;;;;;;;3.08;1.30;;;;;;;;;;5088543;28;20057;-84
2022/09/29 17:18:51;;;;;;;1.67;1.05;;;;;;;;;;5092508;28;20032;-86
2022/09/29 17:21:17;;;;;;;1.25;0.93;;;;;;;;;;5090062;28;20145;-89
2022/09/29 17:23:42;;;;;;;0.60;0.40;;;;;;;;;;5091890;28;20062;-84
2022/09/29 17:29:05;;;;;;;2.25;1.92;;;;;;;;;;5096186;28;20038;-85
2022/09/29 17:31:31;;;;;;;1.55;1.10;;;;;;;;;;5097557;28;20024;-85
2022/09/29 17:33:56;;;;;;;0.43;0.43;;;;;;;;;;5096595;28;20086;-85
2022/09/29 17:36:23;;;;;;;0.95;0.65;;;;;;;;;;5096275;28;20030;-87